createdAt,value
2022-12-16T00:01:18.740Z,101162.88
2022-12-16T00:03:52.959Z,101164.00
2022-12-16T00:06:22.594Z,101168.78
2022-12-16T00:08:49.248Z,101172.44
2022-12-16T00:11:15.905Z,101167.97
2022-12-16T00:13:42.546Z,101170.25
2022-12-16T00:16:16.291Z,101173.06
2022-12-16T00:18:43.319Z,101166.91
2022-12-16T00:21:14.161Z,101172.00
2022-12-16T00:23:44.411Z,101168.69
2022-12-16T00:26:12.060Z,101173.75
2022-12-16T00:28:39.769Z,101170.09
2022-12-16T00:31:15.778Z,101162.31
2022-12-16T00:33:42.505Z,101163.78
2022-12-16T00:36:09.365Z,101163.22
2022-12-16T00:38:35.976Z,101155.44
2022-12-16T00:41:10.329Z,101165.00
2022-12-16T00:43:37.099Z,101164.44
2022-12-16T00:46:03.886Z,101158.31
2022-12-16T00:48:30.531Z,101168.16
2022-12-16T00:50:57.176Z,101159.22
2022-12-16T00:53:24.800Z,101159.00
2022-12-16T00:55:52.089Z,101159.59
2022-12-16T00:58:18.779Z,101155.44
2022-12-16T01:00:45.482Z,101150.75
2022-12-16T01:03:15.574Z,101159.47
2022-12-16T01:05:46.214Z,101152.78
2022-12-16T01:08:12.945Z,101155.38
2022-12-16T01:10:39.618Z,101159.63
2022-12-16T01:13:06.234Z,101159.41
2022-12-16T01:15:33.156Z,101162.81
2022-12-16T01:17:59.823Z,101166.25
2022-12-16T01:20:26.486Z,101167.69
2022-12-16T01:22:53.093Z,101162.69
2022-12-16T01:25:21.580Z,101173.69
2022-12-16T01:27:48.402Z,101168.66
2022-12-16T01:30:15.132Z,101168.75
2022-12-16T01:32:41.812Z,101175.25
2022-12-16T01:35:29.391Z,101178.69
2022-12-16T01:37:55.358Z,101186.03
2022-12-16T01:40:23.163Z,101192.03
2022-12-16T01:42:50.067Z,101201.88
2022-12-16T01:45:23.597Z,101197.47
2022-12-16T01:47:51.247Z,101202.88
2022-12-16T01:50:19.387Z,101206.59
2022-12-16T01:52:48.337Z,101203.56
2022-12-16T01:55:47.168Z,101208.63
2022-12-16T01:58:15.981Z,101223.25
2022-12-16T02:00:42.728Z,101221.63
2022-12-16T02:03:09.813Z,101229.81
2022-12-16T02:05:38.727Z,101233.00
2022-12-16T02:08:11.416Z,101230.75
2022-12-16T02:10:44.136Z,101237.25
2022-12-16T02:13:19.929Z,101239.59
2022-12-16T02:15:52.440Z,101239.88
2022-12-16T02:18:33.574Z,101234.31
2022-12-16T02:21:17.067Z,101234.94
2022-12-16T02:23:43.964Z,101239.97
2022-12-16T02:26:16.628Z,101240.56
2022-12-16T02:29:04.474Z,101244.56
2022-12-16T02:31:41.959Z,101249.06
2022-12-16T02:34:12.440Z,101242.94
2022-12-16T02:36:49.032Z,101246.31
2022-12-16T02:39:33.976Z,101235.72
2022-12-16T02:42:11.697Z,101243.00
2022-12-16T02:44:41.352Z,101253.97
2022-12-16T02:47:07.940Z,101246.97
2022-12-16T02:49:34.591Z,101240.28
2022-12-16T02:52:02.050Z,101249.81
2022-12-16T02:54:29.069Z,101241.16
2022-12-16T02:57:14.316Z,101250.16
2022-12-16T03:00:07.040Z,101247.94
2022-12-16T03:03:00.082Z,101256.06
2022-12-16T03:05:29.770Z,101260.59
2022-12-16T03:07:58.815Z,101260.59
2022-12-16T03:10:28.097Z,101264.81
2022-12-16T03:12:56.666Z,101266.53
2022-12-16T03:15:25.925Z,101275.50
2022-12-16T03:17:54.051Z,101268.81
2022-12-16T03:20:31.184Z,101274.16
2022-12-16T03:23:00.166Z,101274.75
2022-12-16T03:25:28.347Z,101279.25
2022-12-16T03:27:59.288Z,101286.84
2022-12-16T03:30:29.906Z,101280.69
2022-12-16T03:33:02.584Z,101274.56
2022-12-16T03:35:33.750Z,101280.19
2022-12-16T03:38:02.035Z,101279.38
2022-12-16T03:40:29.129Z,101263.16
2022-12-16T03:42:57.227Z,101272.41
2022-12-16T03:45:26.422Z,101272.44
2022-12-16T03:47:53.682Z,101282.78
2022-12-16T03:50:22.213Z,101281.66
2022-12-16T03:52:48.802Z,101289.22
2022-12-16T03:55:15.541Z,101279.16
2022-12-16T03:57:42.139Z,101281.69
2022-12-16T04:00:09.629Z,101287.03
2022-12-16T04:02:36.453Z,101286.78
2022-12-16T04:05:03.311Z,101290.69
2022-12-16T04:07:30.043Z,101283.69
2022-12-16T04:09:56.641Z,101283.69
2022-12-16T04:12:41.712Z,101285.41
2022-12-16T04:15:29.136Z,101292.41
2022-12-16T04:18:34.126Z,101300.53
2022-12-16T04:21:20.035Z,101294.38
2022-12-16T04:24:07.568Z,101298.59
2022-12-16T04:26:57.277Z,101301.94
2022-12-16T04:29:24.302Z,101303.34
2022-12-16T04:31:51.726Z,101295.25
2022-12-16T04:34:27.866Z,101303.34
2022-12-16T04:37:14.371Z,101297.50
2022-12-16T04:39:59.296Z,101304.47
2022-12-16T04:42:44.408Z,101298.94
2022-12-16T04:45:30.073Z,101304.78
2022-12-16T04:48:15.236Z,101311.50
2022-12-16T04:51:01.988Z,101314.84
2022-12-16T04:53:47.250Z,101324.94
2022-12-16T04:56:32.561Z,101319.88
2022-12-16T04:59:17.851Z,101321.28
2022-12-16T05:02:03.655Z,101326.03
2022-12-16T05:04:48.967Z,101326.31
2022-12-16T05:07:41.115Z,101326.03
2022-12-16T05:10:26.379Z,101325.78
2022-12-16T05:13:14.615Z,101335.53
2022-12-16T05:16:00.305Z,101330.50
2022-12-16T05:18:45.445Z,101336.38
2022-12-16T05:21:31.261Z,101345.84
2022-12-16T05:24:16.477Z,101338.31
2022-12-16T05:27:01.776Z,101340.84
2022-12-16T05:29:46.852Z,101340.31
2022-12-16T05:32:31.984Z,101343.38
2022-12-16T05:35:17.121Z,101348.41
2022-12-16T05:38:03.788Z,101346.72
2022-12-16T05:40:48.889Z,101347.28
2022-12-16T05:43:34.309Z,101352.31
2022-12-16T05:46:19.672Z,101358.16
2022-12-16T05:49:04.917Z,101350.91
2022-12-16T05:51:50.018Z,101353.69
2022-12-16T05:54:35.212Z,101354.00
2022-12-16T05:57:20.513Z,101366.81
2022-12-16T06:00:05.555Z,101373.25
2022-12-16T06:02:50.827Z,101377.16
2022-12-16T06:05:37.114Z,101383.84
2022-12-16T06:08:36.045Z,101381.91
2022-12-16T06:11:21.041Z,101384.69
2022-12-16T06:14:05.953Z,101377.41
2022-12-16T06:16:52.978Z,101369.84
2022-12-16T06:19:38.302Z,101364.25
2022-12-16T06:22:23.403Z,101363.41
2022-12-16T06:25:08.507Z,101368.94
2022-12-16T06:27:53.642Z,101365.31
2022-12-16T06:30:38.835Z,101367.28
2022-12-16T06:33:24.012Z,101378.44
2022-12-16T06:36:08.937Z,101377.59
2022-12-16T06:38:54.093Z,101384.28
2022-12-16T06:41:39.206Z,101387.06
2022-12-16T06:44:24.381Z,101388.19
2022-12-16T06:47:09.481Z,101392.91
2022-12-16T06:49:54.634Z,101399.66
2022-12-16T06:52:40.153Z,101397.63
2022-12-16T06:55:45.037Z,101392.34
2022-12-16T06:58:30.386Z,101407.44
2022-12-16T07:01:15.668Z,101401.81
2022-12-16T07:04:00.828Z,101397.59
2022-12-16T07:06:46.494Z,101397.56
2022-12-16T07:09:31.489Z,101396.69
2022-12-16T07:12:38.245Z,101397.78
2022-12-16T07:15:23.782Z,101402.81
2022-12-16T07:18:17.707Z,101401.09
2022-12-16T07:21:18.080Z,101398.56
2022-12-16T07:24:03.372Z,101422.94
2022-12-16T07:26:49.009Z,101429.06
2022-12-16T07:29:34.203Z,101433.00
2022-12-16T07:32:19.493Z,101436.06
2022-12-16T07:35:04.688Z,101440.25
2022-12-16T07:37:50.561Z,101441.34
2022-12-16T07:40:36.436Z,101444.41
2022-12-16T07:43:21.829Z,101444.69
2022-12-16T07:46:07.365Z,101452.50
2022-12-16T07:48:52.798Z,101459.47
2022-12-16T07:51:38.360Z,101456.13
2022-12-16T07:54:25.679Z,101460.28
2022-12-16T07:57:10.790Z,101470.91
2022-12-16T07:59:55.794Z,101477.06
2022-12-16T08:02:41.285Z,101479.88
2022-12-16T08:05:26.811Z,101485.22
2022-12-16T08:08:14.494Z,101488.00
2022-12-16T08:11:00.194Z,101482.41
2022-12-16T08:13:45.239Z,101485.22
2022-12-16T08:16:30.458Z,101490.50
2022-12-16T08:19:15.471Z,101498.91
2022-12-16T08:22:00.540Z,101500.06
2022-12-16T08:24:51.264Z,101500.06
2022-12-16T08:27:45.124Z,101502.03
2022-12-16T08:30:30.735Z,101506.25
2022-12-16T08:33:19.579Z,101509.03
2022-12-16T08:36:05.734Z,101505.13
2022-12-16T08:38:50.748Z,101503.16
2022-12-16T08:41:36.352Z,101512.41
2022-12-16T08:44:21.443Z,101511.28
2022-12-16T08:47:06.658Z,101517.69
2022-12-16T08:49:54.779Z,101513.13
2022-12-16T08:52:43.181Z,101517.63
2022-12-16T08:55:29.941Z,101525.16
2022-12-16T08:58:15.518Z,101525.41
2022-12-16T09:01:06.741Z,101526.25
2022-12-16T09:03:52.880Z,101529.03
2022-12-16T09:06:40.591Z,101527.91
2022-12-16T09:09:26.671Z,101528.16
2022-12-16T09:12:11.774Z,101535.47
2022-12-16T09:14:56.922Z,101542.44
2022-12-16T09:17:50.080Z,101538.19
2022-12-16T09:20:36.461Z,101546.34
2022-12-16T09:23:21.923Z,101551.94
2022-12-16T09:26:07.101Z,101553.34
2022-12-16T09:28:52.302Z,101553.03
2022-12-16T09:31:38.754Z,101561.16
2022-12-16T09:34:28.221Z,101555.28
2022-12-16T09:37:13.441Z,101560.31
2022-12-16T09:40:15.893Z,101561.69
2022-12-16T09:43:10.024Z,101559.44
2022-12-16T09:46:00.611Z,101569.53
2022-12-16T09:49:17.896Z,101560.53
2022-12-16T09:52:04.891Z,101557.44
2022-12-16T09:54:52.837Z,101561.63
2022-12-16T09:57:51.355Z,101570.84
2022-12-16T10:00:41.495Z,101578.69
2022-12-16T10:03:52.986Z,101582.56
2022-12-16T10:07:01.325Z,101578.66
2022-12-16T10:09:49.433Z,101580.06
2022-12-16T10:12:53.368Z,101587.03
2022-12-16T10:16:04.691Z,101594.03
2022-12-16T10:19:01.881Z,101595.97
2022-12-16T10:21:51.863Z,101602.72
2022-12-16T10:24:40.030Z,101591.44
2022-12-16T10:27:34.616Z,101603.47
2022-12-16T10:30:20.314Z,101604.03
2022-12-16T10:33:08.695Z,101596.13
2022-12-16T10:36:04.409Z,101589.41
2022-12-16T10:39:01.234Z,101595.56
2022-12-16T10:41:53.543Z,101605.66
2022-12-16T10:44:56.596Z,101603.69
2022-12-16T10:47:52.040Z,101604.78
2022-12-16T10:50:37.033Z,101602.28
2022-12-16T10:53:24.603Z,101613.50
2022-12-16T10:56:16.379Z,101608.72
2022-12-16T10:59:05.431Z,101608.72
2022-12-16T11:01:50.780Z,101597.50
2022-12-16T11:04:56.397Z,101600.59
2022-12-16T11:08:02.135Z,101603.41
2022-12-16T11:10:47.502Z,101604.53
2022-12-16T11:13:36.096Z,101596.09
2022-12-16T11:16:28.778Z,101599.22
2022-12-16T11:19:14.052Z,101596.09
2022-12-16T11:21:59.227Z,101598.38
2022-12-16T11:24:44.763Z,101593.88
2022-12-16T11:30:41.808Z,101595.84
2022-12-16T11:33:33.418Z,101591.69
2022-12-16T11:36:39.155Z,101585.22
2022-12-16T11:39:25.854Z,101585.50
2022-12-16T11:42:13.041Z,101582.13
2022-12-16T11:44:59.998Z,101578.81
2022-12-16T11:47:49.564Z,101584.69
2022-12-16T11:50:36.494Z,101582.19
2022-12-16T11:53:24.063Z,101587.53
2022-12-16T11:56:15.988Z,101577.47
2022-12-16T11:59:01.814Z,101591.75
2022-12-16T12:01:49.508Z,101577.47
2022-12-16T12:04:34.656Z,101581.69
2022-12-16T12:07:48.727Z,101582.78
2022-12-16T12:11:02.284Z,101579.75
2022-12-16T12:13:50.521Z,101583.13
2022-12-16T12:16:50.391Z,101589.03
2022-12-16T12:19:38.232Z,101587.66
2022-12-16T12:22:50.205Z,101594.66
2022-12-16T12:25:52.048Z,101593.56
2022-12-16T12:28:52.325Z,101592.19
2022-12-16T12:31:40.621Z,101605.66
2022-12-16T12:34:36.401Z,101592.22
2022-12-16T12:37:24.539Z,101598.41
2022-12-16T12:40:32.796Z,101596.19
2022-12-16T12:43:20.281Z,101595.91
2022-12-16T12:46:24.328Z,101592.56
2022-12-16T12:49:27.399Z,101601.03
2022-12-16T12:52:24.457Z,101592.03
2022-12-16T12:55:19.090Z,101596.56
2022-12-16T12:58:10.779Z,101599.97
2022-12-16T13:01:01.850Z,101601.09
2022-12-16T13:03:53.249Z,101596.34
2022-12-16T13:06:39.931Z,101593.28
2022-12-16T13:09:45.250Z,101598.63
2022-12-16T13:12:30.451Z,101607.88
2022-12-16T13:15:26.058Z,101597.19
2022-12-16T13:18:20.295Z,101607.88
2022-12-16T13:21:23.955Z,101603.97
2022-12-16T13:24:09.105Z,101597.22
2022-12-16T13:27:10.992Z,101596.69
2022-12-16T13:29:56.332Z,101590.22
2022-12-16T13:32:44.442Z,101598.38
2022-12-16T13:35:29.701Z,101590.53
2022-12-16T13:38:16.284Z,101594.47
2022-12-16T13:41:08.890Z,101590.84
2022-12-16T13:44:13.324Z,101590.56
2022-12-16T13:46:58.549Z,101602.31
2022-12-16T13:49:55.942Z,101595.34
2022-12-16T13:53:03.124Z,101590.56
2022-12-16T13:55:53.788Z,101598.13
2022-12-16T13:58:48.036Z,101598.97
2022-12-16T14:01:35.999Z,101593.13
2022-12-16T14:04:21.282Z,101594.50
2022-12-16T14:07:07.800Z,101597.88
2022-12-16T14:09:54.573Z,101602.34
2022-12-16T14:12:53.206Z,101611.31
2022-12-16T14:15:59.959Z,101603.47
2022-12-16T14:18:48.260Z,101607.94
2022-12-16T14:21:37.926Z,101608.78
2022-12-16T14:24:30.769Z,101612.16
2022-12-16T14:27:15.667Z,101607.13
2022-12-16T14:30:02.233Z,101601.22
2022-12-16T14:32:51.895Z,101606.78
2022-12-16T14:35:44.199Z,101611.84
2022-12-16T14:38:46.671Z,101614.34
2022-12-16T14:41:32.032Z,101614.06
2022-12-16T14:44:17.265Z,101615.72
2022-12-16T14:47:07.542Z,101617.41
2022-12-16T14:49:52.449Z,101617.38
2022-12-16T14:52:42.534Z,101626.59
2022-12-16T14:55:50.855Z,101624.94
2022-12-16T14:58:37.527Z,101629.41
2022-12-16T15:01:34.042Z,101641.13
2022-12-16T15:04:21.647Z,101646.44
2022-12-16T15:07:08.057Z,101641.91
2022-12-16T15:09:58.271Z,101651.97
2022-12-16T15:12:46.911Z,101646.94
2022-12-16T15:15:34.618Z,101651.16
2022-12-16T15:18:20.301Z,101663.16
2022-12-16T15:21:26.148Z,101660.03
2022-12-16T15:24:11.726Z,101653.03
2022-12-16T15:26:57.394Z,101661.97
2022-12-16T15:30:02.703Z,101668.38
2022-12-16T15:32:48.810Z,101670.03
2022-12-16T15:35:50.921Z,101674.22
2022-12-16T15:38:49.729Z,101671.13
2022-12-16T15:41:55.036Z,101674.44
2022-12-16T15:44:42.194Z,101671.31
2022-12-16T15:47:47.974Z,101678.56
2022-12-16T15:50:33.933Z,101679.97
2022-12-16T15:53:35.231Z,101674.88
2022-12-16T15:56:20.710Z,101674.03
2022-12-16T15:59:06.198Z,101688.53
2022-12-16T16:02:04.311Z,101687.13
2022-12-16T16:04:50.039Z,101689.63
2022-12-16T16:07:45.605Z,101692.94
2022-12-16T16:10:33.909Z,101699.91
2022-12-16T16:13:19.137Z,101696.81
2022-12-16T16:16:04.221Z,101701.81
2022-12-16T16:18:49.280Z,101704.31
2022-12-16T16:21:34.770Z,101704.00
2022-12-16T16:24:19.839Z,101701.47
2022-12-16T16:27:04.883Z,101706.75
2022-12-16T16:29:49.880Z,101703.38
2022-12-16T16:32:34.972Z,101706.72
2022-12-16T16:35:20.493Z,101703.63
2022-12-16T16:38:05.681Z,101712.25
2022-12-16T16:40:50.749Z,101710.81
2022-12-16T16:43:36.672Z,101709.41
2022-12-16T16:46:24.789Z,101718.31
2022-12-16T16:49:09.764Z,101714.09
2022-12-16T16:51:54.994Z,101712.69
2022-12-16T16:54:40.041Z,101717.69
2022-12-16T16:57:27.576Z,101718.78
2022-12-16T17:00:12.605Z,101716.53
2022-12-16T17:02:57.806Z,101724.59
2022-12-16T17:06:03.277Z,101723.75
2022-12-16T17:08:48.593Z,101728.16
2022-12-16T17:11:40.835Z,101729.25
2022-12-16T17:14:30.498Z,101728.97
2022-12-16T17:17:15.595Z,101719.16
2022-12-16T17:20:00.965Z,101729.75
2022-12-16T17:22:46.335Z,101721.91
2022-12-16T17:25:32.064Z,101731.59
2022-12-16T17:28:17.712Z,101740.22
2022-12-16T17:31:02.740Z,101741.59
2022-12-16T17:33:47.959Z,101742.97
2022-12-16T17:36:34.534Z,101741.53
2022-12-16T17:39:20.135Z,101738.19
2022-12-16T17:42:05.515Z,101736.75
2022-12-16T17:44:50.547Z,101736.19
2022-12-16T17:47:35.555Z,101739.22
2022-12-16T17:50:21.068Z,101739.47
2022-12-16T17:53:06.084Z,101741.09
2022-12-16T17:55:52.139Z,101739.41
2022-12-16T17:58:37.174Z,101738.84
2022-12-16T18:01:24.093Z,101740.19
2022-12-16T18:04:09.534Z,101741.31
2022-12-16T18:06:54.662Z,101740.13
2022-12-16T18:09:39.728Z,101742.09
2022-12-16T18:12:24.736Z,101735.31
2022-12-16T18:15:09.887Z,101731.97
2022-12-16T18:17:54.904Z,101739.75
2022-12-16T18:20:39.916Z,101743.66
2022-12-16T18:23:24.999Z,101744.16
2022-12-16T18:26:16.685Z,101739.09
2022-12-16T18:29:01.817Z,101741.31
2022-12-16T18:31:46.890Z,101744.63
2022-12-16T18:34:34.095Z,101746.56
2022-12-16T18:37:19.216Z,101743.19
2022-12-16T18:40:04.317Z,101744.53
2022-12-16T18:42:49.495Z,101747.56
2022-12-16T18:45:34.667Z,101749.78
2022-12-16T18:48:19.682Z,101756.72
2022-12-16T18:51:11.365Z,101761.72
2022-12-16T18:53:56.378Z,101760.03
2022-12-16T18:56:41.505Z,101774.47
2022-12-16T18:59:26.741Z,101778.34
2022-12-16T19:02:11.937Z,101764.94
2022-12-16T19:04:57.563Z,101767.97
2022-12-16T19:07:45.106Z,101773.78
2022-12-16T19:10:30.111Z,101776.00
2022-12-16T19:13:15.613Z,101781.84
2022-12-16T19:16:20.540Z,101786.00
2022-12-16T19:19:05.851Z,101780.91
2022-12-16T19:21:56.162Z,101789.53
2022-12-16T19:24:46.804Z,101793.41
2022-12-16T19:27:41.175Z,101793.09
2022-12-16T19:30:26.858Z,101797.81
2022-12-16T19:33:11.853Z,101785.22
2022-12-16T19:35:57.373Z,101790.22
2022-12-16T19:38:42.486Z,101784.03
2022-12-16T19:41:34.115Z,101794.34
2022-12-16T19:44:19.140Z,101790.97
2022-12-16T19:47:04.379Z,101809.00
2022-12-16T19:49:49.414Z,101815.69
2022-12-16T19:52:34.604Z,101807.56
2022-12-16T19:55:19.692Z,101818.94
2022-12-16T19:58:06.155Z,101819.22
2022-12-16T20:00:51.104Z,101817.78
2022-12-16T20:03:36.894Z,101816.09
2022-12-16T20:06:23.552Z,101821.06
2022-12-16T20:09:09.551Z,101818.53
2022-12-16T20:11:55.205Z,101820.75
2022-12-16T20:14:41.441Z,101821.00
2022-12-16T20:17:26.622Z,101818.44
2022-12-16T20:20:11.679Z,101825.13
2022-12-16T20:22:56.702Z,101821.75
2022-12-16T20:25:41.749Z,101824.75
2022-12-16T20:28:26.653Z,101826.97
2022-12-16T20:31:11.898Z,101829.16
2022-12-16T20:34:02.684Z,101827.47
2022-12-16T20:36:55.846Z,101836.09
2022-12-16T20:39:42.489Z,101825.19
2022-12-16T20:42:28.842Z,101835.22
2022-12-16T20:45:13.778Z,101838.00
2022-12-16T20:48:12.133Z,101834.72
2022-12-16T20:50:57.246Z,101839.53
2022-12-16T20:53:42.732Z,101841.00
2022-12-16T20:56:28.030Z,101837.69
2022-12-16T20:59:13.088Z,101834.38
2022-12-16T21:02:22.092Z,101834.75
2022-12-16T21:05:03.421Z,101847.91
2022-12-16T21:07:48.651Z,101847.41
2022-12-16T21:10:33.888Z,101852.50
2022-12-16T21:13:26.131Z,101854.53
2022-12-16T21:16:11.172Z,101855.97
2022-12-16T21:18:56.076Z,101860.19
2022-12-16T21:21:41.794Z,101870.81
2022-12-16T21:24:37.467Z,101866.69
2022-12-16T21:27:22.601Z,101858.66
2022-12-16T21:30:07.787Z,101862.88
2022-12-16T21:32:53.483Z,101866.84
2022-12-16T21:35:38.987Z,101872.16
2022-12-16T21:38:30.613Z,101873.59
2022-12-16T21:41:16.247Z,101863.88
2022-12-16T21:44:01.335Z,101876.72
2022-12-16T21:46:46.328Z,101883.72
2022-12-16T21:49:31.462Z,101875.97
2022-12-16T21:52:16.551Z,101863.72
2022-12-16T21:55:01.545Z,101866.22
2022-12-16T21:57:51.017Z,101863.72
2022-12-16T22:00:38.642Z,101862.59
2022-12-16T22:03:23.807Z,101863.72
2022-12-16T22:06:08.796Z,101860.94
2022-12-16T22:08:54.613Z,101860.09
2022-12-16T22:11:41.413Z,101857.31
2022-12-16T22:14:26.350Z,101858.41
2022-12-16T22:17:11.407Z,101860.34
2022-12-16T22:19:56.544Z,101856.69
2022-12-16T22:22:42.100Z,101859.75
2022-12-16T22:25:27.777Z,101863.13
2022-12-16T22:28:12.717Z,101855.38
2022-12-16T22:30:57.872Z,101853.16
2022-12-16T22:33:42.939Z,101857.63
2022-12-16T22:36:29.650Z,101856.25
2022-12-16T22:39:14.800Z,101860.50
2022-12-16T22:41:59.704Z,101858.03
2022-12-16T22:44:44.844Z,101854.72
2022-12-16T22:47:29.796Z,101863.44
2022-12-16T22:50:14.854Z,101868.50
2022-12-16T22:52:59.903Z,101866.88
2022-12-16T22:55:45.030Z,101872.78
2022-12-16T22:58:30.594Z,101876.75
2022-12-16T23:01:16.083Z,101861.47
2022-12-16T23:04:01.674Z,101873.19
2022-12-16T23:06:46.832Z,101875.47
2022-12-16T23:09:31.888Z,101878.84
2022-12-16T23:12:17.023Z,101873.84
2022-12-16T23:15:02.016Z,101882.53
2022-12-16T23:17:47.689Z,101880.59
2022-12-16T23:20:32.781Z,101872.84
2022-12-16T23:23:17.996Z,101877.88
2022-12-16T23:26:13.129Z,101867.56
2022-12-16T23:28:58.224Z,101869.00
2022-12-16T23:31:43.299Z,101878.22
2022-12-16T23:34:28.453Z,101874.06
2022-12-16T23:37:13.369Z,101874.06
2022-12-16T23:39:58.439Z,101874.88
2022-12-16T23:42:43.555Z,101880.47
2022-12-16T23:45:28.658Z,101878.81
2022-12-16T23:48:20.423Z,101877.13
2022-12-16T23:51:05.565Z,101875.41
2022-12-16T23:53:50.509Z,101867.06
2022-12-16T23:56:35.637Z,101875.66
2022-12-16T23:59:20.639Z,101872.06
